Etusivu
METAR-TAF:

METAR-TAF

Lentoasemat :

Xi’an Xianyangin kansainvälinen lentoasema

Xi’an, Kiina

Leveyspiiri: 34-26N, Pituuspiiri: 108-45E, korkeus merenpinnasta: 479 m

Tämänhetkinen sää

Tämä raportti tehtiin 45 minuuttia sitten, kello 08.00 UTC
Tuuli 6 kn etelästä, vaihdellen kaakon ja etelän/lounaan välillä
Lämpötila 24°C
Kosteus 69%
Ilmanpaine 1015 hPa
Näkyvyys: 8000 m
Muutamia pilviä 7000 ft:n korkeudessa

METAR: ZLXY 200800Z 18003MPS 140V210 8000 FEW070 24/18 Q1015 NOSIG

Aika: 16:45 (08:45 UTC)

Sääennuste

Tämä raportti tehtiin 5 tuntia ja 38 minuuttia sitten, kello 03.07 UTC
Ennuste voimassa 20. päivästä klo 06 UTC - 21. päivään klo 06 UTC
Tuuli 6 kn lännestä
Näkyvyys: 3000 m
utua
Tulossa
20. päivästä klo 15 UTC - 20. päivään klo 16 UTC
Näkyvyys: 2400 m
utua
Tulossa
21. päivästä klo 00 UTC - 21. päivään klo 01 UTC
Näkyvyys: 3000 m

TAF: ZLXY 200307Z 2006/2106 26003MPS 3000 BR NSC TX23/2007Z TN14/2021Z BECMG 2015/2016 2400 BR BECMG 2100/2101 3000

Säähavainnot ja -ennusteet yli 4000 lentoasemalta (METAR- ja TAF-raportit).

Käytössä olevat sääasemat on merkitty karttaan keltaisilla ja punaisilla pisteillä.

Aseta hiiri pisteen päälle nähdäksesi sääaseman nimen.

Klikkaa sitten nähdäksesi säähavainnot ja -ennusteet.

Kartan vaihtaminen: klikkaa mustalla rastilla varustettuja vihreitä pisteitä, niin voit zoomata sisään; viivalla varustettua vihreää pistettä, niin voit zoomata ulos tai vihreitä nuolia, niin pääset viereisille kartoille.


METAR-TAF: